createdAt,value
2022-10-26T00:01:47.587Z,118.83
2022-10-26T00:06:53.629Z,129.23
2022-10-26T00:11:58.793Z,127.75
2022-10-26T00:17:04.476Z,126.83
2022-10-26T00:22:09.805Z,130.52
2022-10-26T00:27:15.290Z,115.28
2022-10-26T00:32:21.479Z,129.93
2022-10-26T00:37:26.988Z,110.78
2022-10-26T00:42:32.475Z,117.57
2022-10-26T00:47:37.804Z,124.03
2022-10-26T00:52:43.812Z,120.47
2022-10-26T00:57:49.005Z,131.27
2022-10-26T01:02:55.317Z,127.90
2022-10-26T01:08:04.512Z,107.88
2022-10-26T01:13:10.257Z,118.32
2022-10-26T01:18:21.764Z,123.78
2022-10-26T01:23:48.780Z,111.93
2022-10-26T01:29:03.521Z,116.55
2022-10-26T01:34:23.367Z,116.97
2022-10-26T01:39:43.880Z,123.65
2022-10-26T01:44:52.845Z,132.00
2022-10-26T01:50:00.727Z,114.10
2022-10-26T01:55:07.278Z,134.10
2022-10-26T02:00:14.567Z,119.18
2022-10-26T02:05:26.668Z,133.13
2022-10-26T02:10:36.208Z,135.65
2022-10-26T02:15:47.097Z,135.00
2022-10-26T02:20:54.712Z,137.55
2022-10-26T02:26:02.094Z,117.45
2022-10-26T02:31:09.057Z,123.97
2022-10-26T02:36:16.737Z,145.43
2022-10-26T02:41:22.943Z,122.95
2022-10-26T02:46:29.705Z,127.70
2022-10-26T02:51:42.998Z,130.27
2022-10-26T02:56:51.323Z,120.07
2022-10-26T03:01:57.209Z,124.63
2022-10-26T03:07:03.251Z,126.28
2022-10-26T03:12:08.880Z,143.02
2022-10-26T03:17:14.482Z,123.65
2022-10-26T03:22:20.070Z,132.23
2022-10-26T03:27:25.599Z,122.45
2022-10-26T03:32:31.128Z,122.57
2022-10-26T03:37:36.384Z,117.65
2022-10-26T03:42:42.191Z,131.17
2022-10-26T03:47:48.573Z,118.28
2022-10-26T03:52:54.404Z,122.53
2022-10-26T03:58:00.008Z,115.25
2022-10-26T04:03:05.532Z,123.97
2022-10-26T04:08:11.603Z,126.13
2022-10-26T04:13:16.971Z,108.97
2022-10-26T04:18:22.865Z,131.35
2022-10-26T04:28:33.714Z,109.72
2022-10-26T04:33:40.320Z,118.90
2022-10-26T04:38:45.936Z,103.53
2022-10-26T04:43:51.509Z,114.10
2022-10-26T04:48:56.975Z,124.32
2022-10-26T04:54:03.158Z,112.18
2022-10-26T04:59:08.652Z,122.30
2022-10-26T05:04:14.680Z,117.33
2022-10-26T05:09:19.934Z,114.35
2022-10-26T05:14:25.315Z,126.13
2022-10-26T05:19:31.178Z,124.87
2022-10-26T05:24:39.909Z,111.78
2022-10-26T05:29:45.538Z,130.25
2022-10-26T05:34:51.257Z,136.50
2022-10-26T05:39:57.462Z,132.93
2022-10-26T05:45:03.317Z,128.68
2022-10-26T05:50:09.083Z,142.40
2022-10-26T05:55:16.059Z,158.32
2022-10-26T06:00:26.180Z,112.50
2022-10-26T06:05:34.163Z,121.30
2022-10-26T06:10:40.442Z,130.75
2022-10-26T06:20:55.665Z,110.65
2022-10-26T06:26:01.211Z,130.38
2022-10-26T06:31:06.550Z,110.32
2022-10-26T06:36:21.146Z,97.35
2022-10-26T06:41:26.690Z,120.97
2022-10-26T06:46:35.553Z,105.53
2022-10-26T06:51:46.163Z,115.25
2022-10-26T06:56:51.688Z,130.27
2022-10-26T07:01:58.889Z,104.03
2022-10-26T07:07:06.056Z,117.57
2022-10-26T07:12:11.361Z,119.63
2022-10-26T07:17:18.447Z,123.53
2022-10-26T07:22:23.940Z,118.00
2022-10-26T07:27:29.977Z,127.10
2022-10-26T07:32:37.751Z,122.85
2022-10-26T07:37:43.394Z,131.45
2022-10-26T07:42:49.065Z,134.07
2022-10-26T07:53:02.334Z,139.77
2022-10-26T07:58:08.439Z,127.25
2022-10-26T08:03:13.798Z,139.05
2022-10-26T08:08:19.661Z,135.13
2022-10-26T08:18:30.143Z,153.52
2022-10-26T08:23:36.265Z,136.73
2022-10-26T08:28:42.319Z,102.32
2022-10-26T08:33:51.204Z,95.28
2022-10-26T08:38:56.701Z,112.35
2022-10-26T08:44:05.612Z,110.00
2022-10-26T08:49:34.155Z,101.97
2022-10-26T08:54:45.299Z,112.30
2022-10-26T08:59:58.981Z,108.53
2022-10-26T09:05:06.798Z,126.85
2022-10-26T09:10:28.964Z,117.82
2022-10-26T09:15:54.517Z,110.13
2022-10-26T09:21:06.398Z,111.43
2022-10-26T09:26:16.609Z,118.18
2022-10-26T09:31:22.370Z,110.72
2022-10-26T09:36:27.589Z,108.00
2022-10-26T09:41:36.734Z,113.53
2022-10-26T09:46:52.446Z,110.00
2022-10-26T09:51:58.178Z,114.63
2022-10-26T10:02:32.413Z,126.55
2022-10-26T10:07:40.029Z,132.05
2022-10-26T10:12:46.060Z,121.68
2022-10-26T10:17:53.161Z,124.25
2022-10-26T10:23:00.027Z,133.23
2022-10-26T10:28:06.409Z,129.10
2022-10-26T10:33:15.420Z,148.18
2022-10-26T10:38:24.456Z,139.52
2022-10-26T10:43:29.992Z,121.30
2022-10-26T10:48:37.252Z,135.43
2022-10-26T10:53:45.146Z,134.75
2022-10-26T10:59:11.618Z,136.23
2022-10-26T11:09:23.576Z,151.25
2022-10-26T11:15:04.299Z,133.43
2022-10-26T11:20:16.961Z,136.40
2022-10-26T11:25:31.336Z,144.48
2022-10-26T11:30:39.156Z,146.40
2022-10-26T11:35:58.687Z,141.30
2022-10-26T11:41:09.208Z,160.52
2022-10-26T11:46:16.694Z,147.90
2022-10-26T11:51:38.968Z,110.55
2022-10-26T11:56:55.481Z,104.50
2022-10-26T12:02:29.180Z,121.07
2022-10-26T12:07:39.653Z,117.45
2022-10-26T12:12:54.050Z,110.97
2022-10-26T12:18:07.502Z,110.15
2022-10-26T12:23:19.106Z,106.75
2022-10-26T12:28:39.860Z,90.53
2022-10-26T12:33:53.651Z,95.35
2022-10-26T12:39:00.078Z,96.68
2022-10-26T12:44:29.229Z,83.90
2022-10-26T12:49:52.663Z,87.55
2022-10-26T12:55:10.656Z,76.00
2022-10-26T13:00:17.664Z,79.43
2022-10-26T13:05:23.249Z,80.78
2022-10-26T13:10:29.221Z,77.60
2022-10-26T13:15:39.411Z,74.13
2022-10-26T13:21:03.928Z,71.32
2022-10-26T13:26:27.919Z,68.45
2022-10-26T13:37:36.012Z,62.50
2022-10-26T13:42:47.526Z,66.50
2022-10-26T13:48:04.754Z,62.90
2022-10-26T13:53:22.593Z,66.97
2022-10-26T13:58:40.019Z,61.58
2022-10-26T14:03:46.960Z,67.35
2022-10-26T14:08:54.343Z,71.80
2022-10-26T14:14:00.398Z,62.90
2022-10-26T14:19:19.232Z,64.53
2022-10-26T14:24:46.228Z,77.85
2022-10-26T14:30:20.557Z,93.30
2022-10-26T14:35:30.449Z,80.20
2022-10-26T14:40:39.364Z,84.70
2022-10-26T14:45:50.524Z,80.68
2022-10-26T14:51:02.108Z,74.55
2022-10-26T14:56:21.449Z,76.10
2022-10-26T15:01:36.961Z,76.95
2022-10-26T15:06:53.478Z,69.77
2022-10-26T15:11:59.299Z,68.40
2022-10-26T15:17:05.182Z,81.90
2022-10-26T15:22:23.167Z,66.63
2022-10-26T15:27:28.838Z,81.63
2022-10-26T15:32:38.207Z,80.05
2022-10-26T15:37:44.382Z,74.15
2022-10-26T15:47:55.966Z,76.07
2022-10-26T15:53:05.355Z,89.13
2022-10-26T15:58:12.028Z,87.50
2022-10-26T16:03:27.096Z,78.97
2022-10-26T16:08:42.136Z,73.65
2022-10-26T16:14:10.620Z,81.43
2022-10-26T16:19:30.336Z,82.32
2022-10-26T16:24:36.986Z,78.90
2022-10-26T16:29:42.608Z,77.80
2022-10-26T16:34:48.326Z,76.38
2022-10-26T16:39:53.695Z,75.47
2022-10-26T16:45:02.527Z,78.57
2022-10-26T16:50:12.614Z,78.78
2022-10-26T16:55:18.410Z,74.22
2022-10-26T17:00:26.139Z,64.95
2022-10-26T17:05:34.233Z,69.53
2022-10-26T17:10:39.480Z,65.80
2022-10-26T17:15:48.343Z,71.65
2022-10-26T17:21:05.708Z,67.00
2022-10-26T17:26:12.641Z,70.63
2022-10-26T17:31:17.975Z,60.67
2022-10-26T17:36:24.764Z,70.03
2022-10-26T17:41:30.258Z,61.90
2022-10-26T17:46:36.082Z,71.15
2022-10-26T17:56:48.616Z,71.13
2022-10-26T18:02:02.639Z,62.88
2022-10-26T18:07:07.969Z,64.60
2022-10-26T18:12:12.987Z,61.97
2022-10-26T18:17:18.187Z,60.23
2022-10-26T18:22:23.926Z,57.08
2022-10-26T18:27:29.756Z,73.30
2022-10-26T18:37:40.792Z,54.95
2022-10-26T18:42:45.857Z,45.53
2022-10-26T18:47:51.537Z,64.20
2022-10-26T18:52:57.052Z,51.08
2022-10-26T18:58:02.890Z,57.70
2022-10-26T19:08:12.997Z,50.20
2022-10-26T19:13:18.561Z,53.10
2022-10-26T19:18:24.149Z,58.03
2022-10-26T19:23:34.187Z,58.07
2022-10-26T19:28:40.280Z,58.03
2022-10-26T19:33:46.053Z,44.70
2022-10-26T19:38:51.157Z,49.80
2022-10-26T19:49:10.325Z,45.05
2022-10-26T19:54:15.858Z,46.10
2022-10-26T19:59:21.095Z,48.92
2022-10-26T20:04:26.306Z,52.47
2022-10-26T20:09:33.882Z,50.10
2022-10-26T20:14:41.914Z,50.13
2022-10-26T20:19:47.485Z,42.60
2022-10-26T20:24:52.922Z,50.78
2022-10-26T20:29:58.471Z,49.38
2022-10-26T20:35:03.800Z,45.80
2022-10-26T20:40:09.191Z,40.80
2022-10-26T20:45:32.470Z,45.17
2022-10-26T20:50:38.164Z,45.60
2022-10-26T20:55:44.080Z,45.65
2022-10-26T21:05:54.317Z,38.17
2022-10-26T21:11:00.153Z,43.47
2022-10-26T21:16:09.297Z,41.53
2022-10-26T21:21:14.833Z,35.75
2022-10-26T21:26:20.065Z,43.65
2022-10-26T21:31:25.211Z,36.53
2022-10-26T21:36:30.722Z,34.13
2022-10-26T21:41:39.086Z,33.03
2022-10-26T21:46:44.572Z,34.38
2022-10-26T21:51:50.053Z,29.63
2022-10-26T21:56:55.570Z,34.97
2022-10-26T22:02:00.863Z,30.83
2022-10-26T22:07:06.157Z,35.00
2022-10-26T22:12:11.661Z,32.57
2022-10-26T22:17:17.111Z,34.17
2022-10-26T22:22:22.433Z,32.85
2022-10-26T22:27:28.076Z,32.23
2022-10-26T22:37:38.693Z,30.08
2022-10-26T22:42:44.281Z,31.48
2022-10-26T22:52:55.105Z,39.00
2022-10-26T22:58:00.577Z,37.15
2022-10-26T23:03:07.139Z,44.45
2022-10-26T23:08:12.445Z,33.63
2022-10-26T23:13:18.009Z,39.67
2022-10-26T23:18:23.560Z,48.03
2022-10-26T23:23:29.122Z,59.45
2022-10-26T23:28:35.677Z,49.87
2022-10-26T23:33:40.991Z,55.97
2022-10-26T23:38:47.031Z,49.55
2022-10-26T23:43:52.126Z,49.10
2022-10-26T23:49:06.372Z,47.77
2022-10-26T23:54:11.457Z,53.78
2022-10-26T23:59:17.217Z,63.83
